createdAt,value
2018-06-12T00:00:49.895Z,96348.48
2018-06-12T00:03:19.081Z,96348.27
2018-06-12T00:05:48.639Z,96348.98
2018-06-12T00:08:17.841Z,96345.81
2018-06-12T00:10:47.094Z,96343.16
2018-06-12T00:13:16.294Z,96338.91
2018-06-12T00:15:45.654Z,96335.95
2018-06-12T00:18:15.178Z,96344.89
2018-06-12T00:20:44.347Z,96349.02
2018-06-12T00:23:13.624Z,96349.17
2018-06-12T00:25:43.497Z,96350.98
2018-06-12T00:28:12.686Z,96349.17
2018-06-12T00:30:42.046Z,96352.62
2018-06-12T00:33:11.710Z,96352.23
2018-06-12T00:35:40.986Z,96346.41
2018-06-12T00:38:10.154Z,96340.30
2018-06-12T00:40:39.314Z,96346.22
2018-06-12T00:43:08.491Z,96348.08
2018-06-12T00:45:37.680Z,96342.45
2018-06-12T00:48:07.629Z,96351.42
2018-06-12T00:50:37.130Z,96349.53
2018-06-12T00:53:06.626Z,96346.73
2018-06-12T00:55:36.190Z,96356.09
2018-06-12T00:58:05.719Z,96362.84
2018-06-12T01:00:34.871Z,96361.50
2018-06-12T01:03:04.279Z,96360.34
2018-06-12T01:05:33.463Z,96364.20
2018-06-12T01:08:02.675Z,96358.47
2018-06-12T01:10:31.880Z,96360.27
2018-06-12T01:13:01.098Z,96360.78
2018-06-12T01:15:30.282Z,96362.91
2018-06-12T01:17:59.903Z,96368.95
2018-06-12T01:20:29.246Z,96366.19
2018-06-12T01:22:58.658Z,96364.39
2018-06-12T01:25:28.283Z,96375.39
2018-06-12T01:27:57.695Z,96377.30
2018-06-12T01:30:27.148Z,96378.00
2018-06-12T01:32:56.319Z,96377.00
2018-06-12T01:35:25.519Z,96379.45
2018-06-12T01:37:54.683Z,96374.66
2018-06-12T01:40:24.249Z,96368.73
2018-06-12T01:42:53.662Z,96366.70
2018-06-12T01:45:22.867Z,96371.34
2018-06-12T01:47:52.068Z,96368.73
2018-06-12T01:50:21.279Z,96370.80
2018-06-12T01:52:50.478Z,96369.09
2018-06-12T01:55:19.804Z,96369.60
2018-06-12T01:57:48.994Z,96368.99
2018-06-12T02:00:18.247Z,96374.05
2018-06-12T02:02:47.436Z,96371.59
2018-06-12T02:05:16.654Z,96374.30
2018-06-12T02:07:45.831Z,96371.50
2018-06-12T02:10:15.643Z,96372.84
2018-06-12T02:12:44.808Z,96373.62
2018-06-12T02:15:14.146Z,96376.80
2018-06-12T02:17:43.334Z,96366.14
2018-06-12T02:20:12.551Z,96360.48
2018-06-12T02:22:41.762Z,96360.80
2018-06-12T02:25:11.329Z,96354.92
2018-06-12T02:27:40.498Z,96351.09
2018-06-12T02:30:10.130Z,96345.61
2018-06-12T02:32:39.303Z,96344.98
2018-06-12T02:35:08.767Z,96343.81
2018-06-12T02:37:37.931Z,96342.16
2018-06-12T02:40:07.134Z,96344.56
2018-06-12T02:42:36.308Z,96337.13
2018-06-12T02:45:06.452Z,96338.47
2018-06-12T02:47:35.630Z,96332.66
2018-06-12T02:50:05.063Z,96337.70
2018-06-12T02:52:34.242Z,96341.18
2018-06-12T02:55:03.475Z,96348.27
2018-06-12T02:57:32.692Z,96348.67
2018-06-12T03:00:01.851Z,96346.43
2018-06-12T03:02:31.595Z,96351.06
2018-06-12T03:05:00.776Z,96357.50
2018-06-12T03:07:29.974Z,96356.08
2018-06-12T03:09:59.175Z,96363.48
2018-06-12T03:12:28.371Z,96359.44
2018-06-12T03:14:57.555Z,96361.05
2018-06-12T03:17:26.754Z,96369.41
2018-06-12T03:19:55.967Z,96363.48
2018-06-12T03:22:25.306Z,96365.94
2018-06-12T03:24:54.513Z,96370.80
2018-06-12T03:27:23.692Z,96373.75
2018-06-12T03:29:52.883Z,96365.97
2018-06-12T03:32:23.094Z,96368.57
2018-06-12T03:34:52.606Z,96367.86
2018-06-12T03:37:21.831Z,96360.59
2018-06-12T03:39:51.286Z,96365.99
2018-06-12T03:42:20.498Z,96367.20
2018-06-12T03:44:49.803Z,96358.75
2018-06-12T03:47:18.998Z,96362.92
2018-06-12T03:49:48.278Z,96359.25
2018-06-12T03:52:22.935Z,96353.11
2018-06-12T03:54:52.283Z,96360.50
2018-06-12T03:57:21.504Z,96357.59
2018-06-12T03:59:51.212Z,96362.13
2018-06-12T04:02:20.430Z,96363.08
2018-06-12T04:04:49.618Z,96359.58
2018-06-12T04:07:18.835Z,96361.61
2018-06-12T04:09:48.015Z,96362.08
2018-06-12T04:12:17.227Z,96362.08
2018-06-12T04:14:46.446Z,96366.83
2018-06-12T04:17:15.960Z,96373.50
2018-06-12T04:19:45.131Z,96367.84
2018-06-12T04:22:14.442Z,96372.90
2018-06-12T04:24:43.742Z,96374.30
2018-06-12T04:27:12.915Z,96382.06
2018-06-12T04:29:42.276Z,96381.80
2018-06-12T04:32:11.938Z,96374.02
2018-06-12T04:34:42.390Z,96376.84
2018-06-12T04:37:11.569Z,96385.77
2018-06-12T04:39:40.771Z,96382.13
2018-06-12T04:42:09.948Z,96385.83
2018-06-12T04:44:39.238Z,96385.30
2018-06-12T04:47:08.424Z,96387.75
2018-06-12T04:49:37.635Z,96393.67
2018-06-12T04:52:06.958Z,96390.37
2018-06-12T04:54:36.547Z,96391.12
2018-06-12T04:57:05.691Z,96388.19
2018-06-12T04:59:34.993Z,96386.69
2018-06-12T05:02:04.190Z,96387.95
2018-06-12T05:04:33.394Z,96390.41
2018-06-12T05:07:02.576Z,96393.45
2018-06-12T05:09:31.783Z,96395.80
2018-06-12T05:12:01.311Z,96400.28
2018-06-12T05:14:30.542Z,96402.81
2018-06-12T05:16:59.712Z,96401.06
2018-06-12T05:19:28.938Z,96405.05
2018-06-12T05:21:58.446Z,96407.38
2018-06-12T05:24:27.658Z,96407.55
2018-06-12T05:26:56.830Z,96406.86
2018-06-12T05:29:26.535Z,96406.20
2018-06-12T05:31:55.935Z,96408.36
2018-06-12T05:34:25.267Z,96404.76
2018-06-12T05:36:54.446Z,96405.95
2018-06-12T05:39:23.669Z,96407.89
2018-06-12T05:41:53.306Z,96404.13
2018-06-12T05:44:22.508Z,96407.89
2018-06-12T05:46:51.879Z,96407.09
2018-06-12T05:49:21.021Z,96406.64
2018-06-12T05:51:50.219Z,96411.98
2018-06-12T05:54:19.408Z,96406.47
2018-06-12T05:56:48.618Z,96409.94
2018-06-12T05:59:17.984Z,96414.05
2018-06-12T06:01:47.166Z,96411.59
2018-06-12T06:04:16.338Z,96422.19
2018-06-12T06:06:45.552Z,96419.80
2018-06-12T06:09:14.748Z,96420.48
2018-06-12T06:11:44.403Z,96420.70
2018-06-12T06:14:13.846Z,96417.09
2018-06-12T06:16:43.058Z,96418.93
2018-06-12T06:19:12.238Z,96415.72
2018-06-12T06:21:41.444Z,96411.37
2018-06-12T06:24:10.636Z,96419.32
2018-06-12T06:26:39.845Z,96418.09
2018-06-12T06:29:09.455Z,96418.41
2018-06-12T06:31:39.346Z,96413.63
2018-06-12T06:34:08.550Z,96419.82
2018-06-12T06:36:38.083Z,96417.98
2018-06-12T06:39:08.062Z,96419.27
2018-06-12T06:41:37.274Z,96412.97
2018-06-12T06:44:06.458Z,96416.59
2018-06-12T06:46:35.650Z,96425.31
2018-06-12T06:49:05.050Z,96422.67
2018-06-12T06:51:34.262Z,96419.41
2018-06-12T06:54:03.529Z,96423.55
2018-06-12T06:56:32.971Z,96415.77
2018-06-12T06:59:02.170Z,96421.94
2018-06-12T07:01:31.391Z,96417.28
2018-06-12T07:04:00.575Z,96416.02
2018-06-12T07:06:29.787Z,96414.59
2018-06-12T07:08:59.017Z,96412.83
2018-06-12T07:11:28.419Z,96411.30
2018-06-12T07:13:57.590Z,96414.97
2018-06-12T07:16:27.279Z,96410.63
2018-06-12T07:18:56.468Z,96414.19
2018-06-12T07:21:25.678Z,96420.64
2018-06-12T07:23:54.867Z,96418.41
2018-06-12T07:26:24.060Z,96410.65
2018-06-12T07:28:53.261Z,96406.59
2018-06-12T07:31:22.516Z,96412.63
2018-06-12T07:33:51.942Z,96407.05
2018-06-12T07:36:21.369Z,96409.69
2018-06-12T07:38:50.907Z,96407.87
2018-06-12T07:41:20.080Z,96411.02
2018-06-12T07:43:49.302Z,96414.13
2018-06-12T07:46:18.495Z,96421.12
2018-06-12T07:48:47.695Z,96424.22
2018-06-12T07:51:16.879Z,96428.14
2018-06-12T07:53:46.071Z,96424.31
2018-06-12T07:56:15.242Z,96424.33
2018-06-12T07:58:44.439Z,96422.20
2018-06-12T08:01:13.643Z,96426.11
2018-06-12T08:03:42.859Z,96430.59
2018-06-12T08:06:12.020Z,96434.15
2018-06-12T08:08:41.443Z,96429.84
2018-06-12T08:11:10.623Z,96434.33
2018-06-12T08:13:39.844Z,96426.02
2018-06-12T08:16:09.026Z,96433.64
2018-06-12T08:18:38.427Z,96437.47
2018-06-12T08:21:07.658Z,96441.41
2018-06-12T08:23:36.882Z,96438.78
2018-06-12T08:26:06.055Z,96442.11
2018-06-12T08:28:35.274Z,96440.25
2018-06-12T08:31:04.464Z,96436.14
2018-06-12T08:33:33.670Z,96441.40
2018-06-12T08:36:03.030Z,96438.86
2018-06-12T08:38:32.234Z,96438.43
2018-06-12T08:41:01.416Z,96440.03
2018-06-12T08:43:30.638Z,96444.38
2018-06-12T08:46:00.008Z,96443.34
2018-06-12T08:48:29.205Z,96447.83
2018-06-12T08:50:58.415Z,96447.33
2018-06-12T08:53:27.586Z,96441.70
2018-06-12T08:55:56.778Z,96449.23
2018-06-12T08:58:26.032Z,96448.66
2018-06-12T09:00:55.230Z,96451.03
2018-06-12T09:03:24.415Z,96458.00
2018-06-12T09:05:53.615Z,96451.13
2018-06-12T09:08:22.831Z,96457.12
2018-06-12T09:10:52.050Z,96461.34
2018-06-12T09:13:21.338Z,96460.86
2018-06-12T09:15:50.535Z,96465.99
2018-06-12T09:18:19.722Z,96464.63
2018-06-12T09:20:49.036Z,96460.79
2018-06-12T09:23:18.207Z,96456.39
2018-06-12T09:25:47.855Z,96460.64
2018-06-12T09:28:17.031Z,96466.31
2018-06-12T09:30:46.243Z,96463.01
2018-06-12T09:33:15.454Z,96472.92
2018-06-12T09:35:44.690Z,96463.94
2018-06-12T09:38:14.341Z,96475.28
2018-06-12T09:40:43.575Z,96473.14
2018-06-12T09:43:12.795Z,96482.50
2018-06-12T09:45:41.982Z,96484.02
2018-06-12T09:48:11.166Z,96485.63
2018-06-12T09:50:40.387Z,96489.43
2018-06-12T09:53:09.563Z,96496.16
2018-06-12T09:55:38.747Z,96493.80
2018-06-12T09:58:07.966Z,96499.92
2018-06-12T10:00:42.387Z,96500.09
2018-06-12T10:03:11.636Z,96505.94
2018-06-12T10:05:40.867Z,96505.77
2018-06-12T10:08:10.128Z,96505.41
2018-06-12T10:10:39.313Z,96506.96
2018-06-12T10:13:08.635Z,96505.47
2018-06-12T10:15:38.137Z,96510.33
2018-06-12T10:18:07.350Z,96505.80
2018-06-12T10:20:37.047Z,96505.02
2018-06-12T10:23:06.243Z,96502.11
2018-06-12T10:25:35.423Z,96504.58
2018-06-12T10:28:04.675Z,96499.09
2018-06-12T10:30:34.085Z,96503.67
2018-06-12T10:33:03.311Z,96503.58
2018-06-12T10:35:32.651Z,96501.82
2018-06-12T10:38:01.875Z,96491.55
2018-06-12T10:40:31.046Z,96498.30
2018-06-12T10:43:00.241Z,96492.95
2018-06-12T10:45:29.439Z,96491.71
2018-06-12T10:47:58.642Z,96482.98
2018-06-12T10:50:28.031Z,96478.52
2018-06-12T10:52:57.236Z,96469.22
2018-06-12T10:55:26.658Z,96471.27
2018-06-12T10:57:56.078Z,96461.02
2018-06-12T11:00:25.259Z,96461.42
2018-06-12T11:02:54.495Z,96466.00
2018-06-12T11:05:23.687Z,96472.10
2018-06-12T11:07:53.168Z,96477.41
2018-06-12T11:10:22.399Z,96485.84
2018-06-12T11:12:51.618Z,96486.03
2018-06-12T11:15:21.164Z,96488.11
2018-06-12T11:17:50.590Z,96486.47
2018-06-12T11:20:19.766Z,96483.75
2018-06-12T11:22:48.966Z,96488.64
2018-06-12T11:25:18.155Z,96482.67
2018-06-12T11:27:48.022Z,96479.28
2018-06-12T11:30:17.206Z,96479.09
2018-06-12T11:32:46.439Z,96468.83
2018-06-12T11:35:15.694Z,96474.16
2018-06-12T11:37:44.870Z,96466.86
2018-06-12T11:40:14.161Z,96475.83
2018-06-12T11:42:43.403Z,96478.66
2018-06-12T11:45:12.583Z,96473.21
2018-06-12T11:47:42.133Z,96473.83
2018-06-12T11:50:11.338Z,96478.73
2018-06-12T11:52:40.519Z,96478.28
2018-06-12T11:55:09.709Z,96478.89
2018-06-12T11:57:38.887Z,96471.52
2018-06-12T12:00:08.190Z,96476.10
2018-06-12T12:02:37.371Z,96477.03
2018-06-12T12:05:07.053Z,96479.75
2018-06-12T12:07:36.231Z,96482.15
2018-06-12T12:10:05.459Z,96470.47
2018-06-12T12:12:34.771Z,96475.05
2018-06-12T12:15:04.155Z,96464.45
2018-06-12T12:17:33.307Z,96453.12
2018-06-12T12:20:02.707Z,96458.98
2018-06-12T12:22:31.900Z,96457.87
2018-06-12T12:25:01.235Z,96448.43
2018-06-12T12:27:30.404Z,96457.78
2018-06-12T12:29:59.683Z,96457.91
2018-06-12T12:32:28.966Z,96452.71
2018-06-12T12:34:58.167Z,96448.34
2018-06-12T12:37:27.359Z,96447.99
2018-06-12T12:39:56.568Z,96448.47
2018-06-12T12:42:26.248Z,96448.13
2018-06-12T12:44:55.439Z,96443.10
2018-06-12T12:47:24.607Z,96451.59
2018-06-12T12:49:54.627Z,96447.78
2018-06-12T12:52:23.782Z,96445.95
2018-06-12T12:54:52.982Z,96450.11
2018-06-12T12:57:22.167Z,96449.23
2018-06-12T12:59:51.416Z,96452.40
2018-06-12T13:02:20.768Z,96457.20
2018-06-12T13:04:50.139Z,96456.22
2018-06-12T13:07:19.582Z,96460.05
2018-06-12T13:09:48.750Z,96462.67
2018-06-12T13:12:18.247Z,96458.69
2018-06-12T13:14:47.458Z,96459.76
2018-06-12T13:17:16.670Z,96461.05
2018-06-12T13:19:45.810Z,96459.13
2018-06-12T13:22:15.009Z,96464.13
2018-06-12T13:24:44.204Z,96459.70
2018-06-12T13:27:13.913Z,96469.39
2018-06-12T13:29:43.083Z,96460.52
2018-06-12T13:32:12.282Z,96461.65
2018-06-12T13:34:41.442Z,96463.22
2018-06-12T13:37:10.633Z,96457.44
2018-06-12T13:39:39.807Z,96458.74
2018-06-12T13:42:08.999Z,96455.42
2018-06-12T13:44:38.230Z,96469.59
2018-06-12T13:47:07.434Z,96470.94
2018-06-12T13:49:36.615Z,96468.92
2018-06-12T13:52:05.827Z,96473.45
2018-06-12T13:54:34.978Z,96467.27
2018-06-12T13:57:04.703Z,96468.97
2018-06-12T13:59:34.379Z,96476.53
2018-06-12T14:02:03.608Z,96469.69
2018-06-12T14:04:32.778Z,96465.31
2018-06-12T14:07:01.993Z,96469.48
2018-06-12T14:09:31.239Z,96466.11
2018-06-12T14:12:01.174Z,96463.64
2018-06-12T14:14:30.339Z,96464.84
2018-06-12T14:16:59.748Z,96463.05
2018-06-12T14:19:28.920Z,96470.98
2018-06-12T14:21:58.370Z,96458.46
2018-06-12T14:24:27.511Z,96460.78
2018-06-12T14:26:56.695Z,96467.27
2018-06-12T14:29:26.296Z,96467.72
2018-06-12T14:31:55.631Z,96457.33
2018-06-12T14:34:24.814Z,96458.86
2018-06-12T14:36:54.791Z,96464.23
2018-06-12T14:39:24.003Z,96464.02
2018-06-12T14:41:53.827Z,96465.87
2018-06-12T14:44:23.155Z,96467.20
2018-06-12T14:46:52.338Z,96469.04
2018-06-12T14:49:21.557Z,96474.13
2018-06-12T14:51:50.762Z,96467.09
2018-06-12T14:54:19.954Z,96464.56
2018-06-12T14:56:49.266Z,96468.89
2018-06-12T14:59:18.799Z,96467.92
2018-06-12T15:01:47.972Z,96462.88
2018-06-12T15:04:17.165Z,96461.73
2018-06-12T15:06:46.338Z,96461.23
2018-06-12T15:09:15.822Z,96463.55
2018-06-12T15:11:45.021Z,96464.32
2018-06-12T15:14:14.210Z,96461.02
2018-06-12T15:16:43.511Z,96468.66
2018-06-12T15:19:12.707Z,96459.47
2018-06-12T15:21:41.890Z,96470.42
2018-06-12T15:24:11.634Z,96470.97
2018-06-12T15:26:40.851Z,96468.11
2018-06-12T15:29:10.032Z,96471.94
2018-06-12T15:31:39.230Z,96474.10
2018-06-12T15:34:08.434Z,96467.94
2018-06-12T15:36:37.726Z,96476.02
2018-06-12T15:39:08.684Z,96464.05
2018-06-12T15:41:38.698Z,96462.52
2018-06-12T15:44:07.902Z,96465.26
2018-06-12T15:46:37.381Z,96461.44
2018-06-12T15:49:06.609Z,96457.68
2018-06-12T15:51:35.799Z,96459.62
2018-06-12T15:54:05.532Z,96461.38
2018-06-12T15:56:34.704Z,96455.78
2018-06-12T15:59:03.889Z,96456.05
2018-06-12T16:01:33.574Z,96473.59
2018-06-12T16:04:03.330Z,96470.48
2018-06-12T16:06:32.847Z,96462.40
2018-06-12T16:09:02.050Z,96471.70
2018-06-12T16:11:31.280Z,96469.22
2018-06-12T16:14:00.483Z,96467.44
2018-06-12T16:16:29.698Z,96468.04
2018-06-12T16:18:58.883Z,96462.02
2018-06-12T16:21:28.222Z,96468.04
2018-06-12T16:23:58.245Z,96464.21
2018-06-12T16:26:27.885Z,96462.06
2018-06-12T16:28:57.047Z,96463.78
2018-06-12T16:31:26.778Z,96459.84
2018-06-12T16:33:56.405Z,96463.87
2018-06-12T16:36:26.284Z,96459.05
2018-06-12T16:38:55.458Z,96461.05
2018-06-12T16:41:24.735Z,96462.11
2018-06-12T16:43:53.863Z,96454.40
2018-06-12T16:46:23.478Z,96452.33
2018-06-12T16:48:53.338Z,96455.06
2018-06-12T16:51:23.314Z,96460.33
2018-06-12T16:53:52.515Z,96456.83
2018-06-12T16:56:21.768Z,96451.27
2018-06-12T16:58:50.980Z,96451.25
2018-06-12T17:01:20.210Z,96450.91
2018-06-12T17:03:49.415Z,96458.88
2018-06-12T17:06:18.983Z,96457.47
2018-06-12T17:08:48.186Z,96459.40
2018-06-12T17:11:17.514Z,96460.04
2018-06-12T17:13:46.743Z,96465.28
2018-06-12T17:16:15.930Z,96453.77
2018-06-12T17:18:45.750Z,96451.45
2018-06-12T17:21:15.406Z,96447.73
2018-06-12T17:23:45.106Z,96450.02
2018-06-12T17:26:14.318Z,96449.50
2018-06-12T17:28:43.555Z,96460.26
2018-06-12T17:31:12.754Z,96457.13
2018-06-12T17:33:41.914Z,96458.72
2018-06-12T17:36:11.147Z,96457.41
2018-06-12T17:38:40.339Z,96467.87
2018-06-12T17:41:09.567Z,96462.95
2018-06-12T17:43:39.294Z,96469.48
2018-06-12T17:46:08.483Z,96466.08
2018-06-12T17:48:37.690Z,96473.80
2018-06-12T17:51:06.932Z,96468.67
2018-06-12T17:53:36.107Z,96480.49
2018-06-12T17:56:06.271Z,96481.55
2018-06-12T17:58:35.475Z,96475.57
2018-06-12T18:01:04.682Z,96472.45
2018-06-12T18:03:33.890Z,96477.11
2018-06-12T18:06:03.992Z,96479.11
2018-06-12T18:08:33.504Z,96484.80
2018-06-12T18:11:02.703Z,96491.91
2018-06-12T18:13:32.081Z,96494.20
2018-06-12T18:16:01.536Z,96498.60
2018-06-12T18:18:31.436Z,96495.28
2018-06-12T18:21:00.647Z,96498.09
2018-06-12T18:23:29.863Z,96501.38
2018-06-12T18:25:59.358Z,96497.66
2018-06-12T18:28:28.591Z,96503.48
2018-06-12T18:30:58.142Z,96504.88
2018-06-12T18:33:28.003Z,96510.91
2018-06-12T18:35:57.172Z,96511.59
2018-06-12T18:38:27.087Z,96517.16
2018-06-12T18:40:56.387Z,96522.31
2018-06-12T18:43:25.598Z,96521.71
2018-06-12T18:45:54.786Z,96520.02
2018-06-12T18:48:24.620Z,96522.81
2018-06-12T18:50:54.217Z,96536.27
2018-06-12T18:53:23.711Z,96531.14
2018-06-12T18:55:52.912Z,96527.40
2018-06-12T18:58:22.118Z,96529.44
2018-06-12T19:00:51.592Z,96529.40
2018-06-12T19:03:21.216Z,96532.78
2018-06-12T19:05:50.715Z,96533.07
2018-06-12T19:08:20.551Z,96535.03
2018-06-12T19:10:49.741Z,96532.61
2018-06-12T19:13:19.391Z,96535.56
2018-06-12T19:15:49.396Z,96532.45
2018-06-12T19:18:18.935Z,96539.92
2018-06-12T19:20:48.158Z,96545.12
2018-06-12T19:23:17.691Z,96545.86
2018-06-12T19:25:48.159Z,96550.09
2018-06-12T19:28:17.703Z,96553.55
2018-06-12T19:30:47.500Z,96563.52
2018-06-12T19:33:17.020Z,96562.38
2018-06-12T19:35:46.254Z,96560.16
2018-06-12T19:38:15.479Z,96559.93
2018-06-12T19:40:45.147Z,96568.75
2018-06-12T19:43:14.343Z,96579.64
2018-06-12T19:45:44.342Z,96572.55
2018-06-12T19:48:13.748Z,96573.41
2018-06-12T19:50:42.970Z,96574.34
2018-06-12T19:53:12.604Z,96584.44
2018-06-12T19:55:41.795Z,96580.78
2018-06-12T19:58:12.261Z,96574.08
2018-06-12T20:00:41.507Z,96583.14
2018-06-12T20:03:10.871Z,96576.64
2018-06-12T20:05:40.123Z,96581.86
2018-06-12T20:08:09.602Z,96582.75
2018-06-12T20:10:39.326Z,96583.62
2018-06-12T20:13:09.385Z,96588.36
2018-06-12T20:15:39.659Z,96581.41
2018-06-12T20:18:09.559Z,96578.98
2018-06-12T20:20:38.912Z,96582.23
2018-06-12T20:23:08.845Z,96579.03
2018-06-12T20:25:38.060Z,96580.72
2018-06-12T20:28:07.247Z,96582.41
2018-06-12T20:30:36.506Z,96579.27
2018-06-12T20:33:06.616Z,96587.39
2018-06-12T20:35:35.850Z,96587.67
2018-06-12T20:38:05.600Z,96590.91
2018-06-12T20:40:35.231Z,96588.52
2018-06-12T20:43:04.508Z,96594.86
2018-06-12T20:45:34.879Z,96590.67
2018-06-12T20:48:04.122Z,96589.14
2018-06-12T20:50:33.907Z,96588.92
2018-06-12T20:53:03.082Z,96587.42
2018-06-12T20:55:32.304Z,96588.56
2018-06-12T20:58:01.776Z,96589.37
2018-06-12T21:00:30.982Z,96587.71
2018-06-12T21:03:00.477Z,96586.14
2018-06-12T21:05:30.498Z,96594.89
2018-06-12T21:08:00.424Z,96591.31
2018-06-12T21:10:29.627Z,96589.77
2018-06-12T21:12:59.080Z,96586.32
2018-06-12T21:15:28.299Z,96594.36
2018-06-12T21:17:57.493Z,96597.85
2018-06-12T21:20:27.094Z,96599.27
2018-06-12T21:22:57.071Z,96599.63
2018-06-12T21:25:26.310Z,96597.53
2018-06-12T21:27:55.503Z,96600.28
2018-06-12T21:30:24.736Z,96606.80
2018-06-12T21:32:54.545Z,96612.41
2018-06-12T21:35:23.727Z,96617.86
2018-06-12T21:37:53.290Z,96610.53
2018-06-12T21:40:22.870Z,96619.78
2018-06-12T21:42:52.360Z,96616.11
2018-06-12T21:45:21.973Z,96615.89
2018-06-12T21:47:51.163Z,96616.78
2018-06-12T21:50:20.649Z,96615.47
2018-06-12T21:52:50.706Z,96620.33
2018-06-12T21:55:19.871Z,96621.48
2018-06-12T21:57:49.082Z,96619.90
2018-06-12T22:00:29.538Z,96607.28
2018-06-12T22:02:59.019Z,96618.35
2018-06-12T22:05:28.578Z,96621.05
2018-06-12T22:07:58.321Z,96618.36
2018-06-12T22:10:27.763Z,96615.59
2018-06-12T22:12:57.394Z,96621.02
2018-06-12T22:15:27.410Z,96625.59
2018-06-12T22:17:56.846Z,96625.02
2018-06-12T22:20:26.035Z,96633.64
2018-06-12T22:22:55.463Z,96633.88
2018-06-12T22:25:25.316Z,96633.88
2018-06-12T22:27:54.529Z,96624.75
2018-06-12T22:30:23.839Z,96626.09
2018-06-12T22:32:53.075Z,96620.98
2018-06-12T22:35:22.256Z,96627.00
2018-06-12T22:37:51.486Z,96624.11
2018-06-12T22:40:20.775Z,96631.67
2018-06-12T22:42:49.991Z,96634.69
2018-06-12T22:45:19.859Z,96635.78
2018-06-12T22:47:49.468Z,96635.28
2018-06-12T22:50:18.930Z,96642.03
2018-06-12T22:52:48.744Z,96638.84
2018-06-12T22:55:17.966Z,96638.55
2018-06-12T22:57:47.551Z,96639.87
2018-06-12T23:00:20.433Z,96642.03
2018-06-12T23:02:49.878Z,96642.52
2018-06-12T23:05:19.095Z,96640.07
2018-06-12T23:07:48.298Z,96639.21
2018-06-12T23:10:17.532Z,96634.34
2018-06-12T23:12:47.063Z,96638.08
2018-06-12T23:15:16.951Z,96630.27
2018-06-12T23:17:46.148Z,96638.02
2018-06-12T23:20:26.594Z,96638.80
2018-06-12T23:22:56.159Z,96636.91
2018-06-12T23:25:25.359Z,96634.95
2018-06-12T23:27:54.682Z,96634.92
2018-06-12T23:30:24.195Z,96642.49
2018-06-12T23:32:53.691Z,96640.04
2018-06-12T23:35:23.407Z,96643.77
2018-06-12T23:37:52.651Z,96644.05
2018-06-12T23:40:21.932Z,96635.19
2018-06-12T23:42:51.411Z,96645.16
2018-06-12T23:45:21.073Z,96645.96
2018-06-12T23:47:50.439Z,96648.70
2018-06-12T23:50:20.318Z,96654.34
2018-06-12T23:52:49.519Z,96648.99
2018-06-12T23:55:18.713Z,96644.72
2018-06-12T23:57:47.944Z,96646.33
